Time;durP1;ratioP1;P1;durP2;ratioP2;P2;SDS_P1;SDS_P2;PMS_P1;PMS_P2;Temp;Humidity;BMP_temperature;BMP_pressure;BME280_temperature;BME280_humidity;BME280_pressure;Samples;Min_cycle;Max_cycle;Signal;HPM_P1;HPM_P2
2022/08/30 00:01:19;;;;;;;;;4.67;4.67;;;;;21.52;46.00;100978.78;5057851;28;45490;-74
2022/08/30 00:03:45;;;;;;;;;4.00;4.00;;;;;21.50;46.07;100988.78;5056593;28;45395;-74
2022/08/30 00:06:13;;;;;;;;;4.00;4.00;;;;;21.49;46.10;100995.09;5056618;28;45336;-74
2022/08/30 00:08:40;;;;;;;;;5.00;5.00;;;;;21.49;46.24;101003.22;5056199;28;46992;-74
2022/08/30 00:11:08;;;;;;;;;5.00;4.00;;;;;21.50;46.20;101002.31;5055968;28;45532;-74
2022/08/30 00:13:35;;;;;;;;;4.67;4.67;;;;;21.48;46.37;100994.22;5057456;28;45449;-74
2022/08/30 00:16:00;;;;;;;;;7.33;5.00;;;;;21.52;45.92;100997.72;5058453;28;45361;-74
2022/08/30 00:18:26;;;;;;;;;7.67;5.00;;;;;21.50;46.16;101000.47;5057944;28;45290;-74
2022/08/30 00:20:52;;;;;;;;;5.33;5.33;;;;;21.47;46.16;101003.28;5057846;28;45489;-74
2022/08/30 00:23:19;;;;;;;;;4.67;4.67;;;;;21.46;46.47;101008.72;5072745;28;45444;-74
2022/08/30 00:25:44;;;;;;;;;5.00;5.00;;;;;21.44;45.91;100997.06;5078921;28;45507;-74
2022/08/30 00:28:11;;;;;;;;;5.00;5.00;;;;;21.45;46.44;101004.22;5059669;28;47692;-74
2022/08/30 00:30:38;;;;;;;;;5.33;5.00;;;;;21.42;46.11;100999.75;5078386;28;45662;-74
2022/08/30 00:33:04;;;;;;;;;4.00;4.00;;;;;21.37;46.47;100974.66;5077675;28;45366;-74
2022/08/30 00:35:30;;;;;;;;;5.67;5.33;;;;;21.40;45.92;100979.97;5059508;28;45353;-74
2022/08/30 00:37:56;;;;;;;;;9.00;6.00;;;;;21.38;46.30;100989.94;5058983;28;46935;-74
2022/08/30 00:40:24;;;;;;;;;5.00;5.00;;;;;21.40;46.29;100977.28;5076253;28;45488;-74
2022/08/30 00:42:50;;;;;;;;;5.33;4.67;;;;;21.44;46.24;100987.09;5077672;28;45823;-74
2022/08/30 00:45:27;;;;;;;;;4.33;4.00;;;;;21.46;46.32;100979.84;5078153;28;45380;-74
2022/08/30 00:47:52;;;;;;;;;4.67;4.00;;;;;21.45;46.41;100985.28;5077563;28;45377;-74
2022/08/30 00:50:21;;;;;;;;;5.67;5.67;;;;;21.43;46.59;100979.03;5077580;28;45432;-75
2022/08/30 00:52:49;;;;;;;;;4.00;4.00;;;;;21.35;46.80;100981.94;5077457;28;45471;-75
2022/08/30 00:55:17;;;;;;;;;4.00;4.00;;;;;21.38;46.91;100982.72;5077420;28;45481;-74
2022/08/30 00:57:45;;;;;;;;;3.67;3.00;;;;;21.35;46.57;100977.41;5076879;28;45315;-74
2022/08/30 01:00:13;;;;;;;;;6.33;4.00;;;;;21.32;47.04;100988.28;5058997;28;45462;-74
2022/08/30 01:02:38;;;;;;;;;5.00;5.00;;;;;21.31;46.95;100985.63;5058815;28;45445;-74
2022/08/30 01:05:07;;;;;;;;;6.00;5.67;;;;;21.29;47.00;100987.47;5058635;28;45540;-74
2022/08/30 01:07:33;;;;;;;;;4.33;4.33;;;;;21.26;46.82;100982.16;5058970;28;47126;-74
2022/08/30 01:10:00;;;;;;;;;6.67;6.00;;;;;21.25;47.23;100986.69;5059117;28;45357;-74
2022/08/30 01:12:26;;;;;;;;;3.67;3.67;;;;;21.32;47.03;100993.69;5059413;28;45449;-75
2022/08/30 01:14:52;;;;;;;;;5.00;5.00;;;;;21.35;46.73;100993.63;5072234;27;45777;-74
2022/08/30 01:17:18;;;;;;;;;4.00;4.00;;;;;21.36;47.01;100989.09;5097667;27;45441;-74
2022/08/30 01:19:59;;;;;;;;;7.33;5.67;;;;;21.36;46.87;100994.50;5097145;27;44804;-74
2022/08/30 01:22:49;;;;;;;;;4.67;4.67;;;;;21.37;47.16;100993.59;5096525;27;45491;-74
2022/08/30 01:25:20;;;;;;;;;5.67;5.67;;;;;21.36;46.86;101000.81;5098058;27;45489;-75
2022/08/30 01:27:51;;;;;;;;;4.00;4.00;;;;;21.33;47.46;100995.50;5078932;27;47246;-75
2022/08/30 01:30:18;;;;;;;;;6.33;4.00;;;;;21.29;47.15;101001.00;5097507;27;45455;-73
2022/08/30 01:32:46;;;;;;;;;6.00;5.00;;;;;21.26;46.89;100999.28;5079054;27;44796;-74
2022/08/30 01:35:17;;;;;;;;;6.33;4.67;;;;;21.27;47.29;101006.47;5097867;27;45409;-74
2022/08/30 01:37:43;;;;;;;;;6.67;5.00;;;;;21.25;47.28;101008.34;5096103;27;47055;-74
2022/08/30 01:40:11;;;;;;;;;4.00;4.00;;;;;21.24;47.37;101008.38;5078682;27;45420;-74
2022/08/30 01:42:43;;;;;;;;;5.67;5.67;;;;;21.17;47.64;100999.53;5093756;27;45445;-74
2022/08/30 01:45:09;;;;;;;;;4.67;4.00;;;;;21.11;47.71;100994.28;5097438;27;45421;-74
2022/08/30 01:47:35;;;;;;;;;4.00;4.00;;;;;21.12;47.48;101013.16;5077990;27;46852;-74
2022/08/30 01:50:00;;;;;;;;;5.33;5.33;;;;;21.07;47.44;101008.81;5096238;27;45405;-76
2022/08/30 01:52:26;;;;;;;;;7.33;5.33;;;;;21.06;47.75;101001.59;5100545;27;45440;-75
2022/08/30 01:54:52;;;;;;;;;3.33;3.33;;;;;21.01;47.69;100987.34;5101825;27;45377;-73
2022/08/30 01:57:20;;;;;;;;;5.00;4.67;;;;;21.00;47.67;100996.34;5101207;27;45499;-74
2022/08/30 01:59:48;;;;;;;;;5.67;5.67;;;;;20.96;47.59;101001.81;5101367;27;45585;-74
2022/08/30 02:02:17;;;;;;;;;5.67;5.67;;;;;20.95;47.90;101007.28;5100694;27;45488;-74
2022/08/30 02:04:43;;;;;;;;;6.33;6.33;;;;;21.03;47.90;101017.94;5082994;27;45460;-74
2022/08/30 02:07:10;;;;;;;;;8.33;6.00;;;;;21.01;47.91;101020.66;5082402;27;47217;-74
2022/08/30 02:09:36;;;;;;;;;8.33;7.67;;;;;21.03;47.77;101023.34;5101183;27;45810;-74
2022/08/30 02:12:03;;;;;;;;;4.33;4.33;;;;;21.03;48.06;101031.44;5101974;27;45436;-74
2022/08/30 02:14:29;;;;;;;;;5.00;5.00;;;;;21.01;47.63;101036.00;5082714;27;45898;-75
2022/08/30 02:16:55;;;;;;;;;6.00;4.00;;;;;21.04;47.85;101044.03;5100939;27;45891;-74
2022/08/30 02:19:20;;;;;;;;;5.67;5.67;;;;;21.06;48.08;101029.53;5100929;27;44827;-74
2022/08/30 02:21:45;;;;;;;;;5.33;4.33;;;;;21.04;47.99;101020.56;5081959;27;45343;-74
2022/08/30 02:24:11;;;;;;;;;5.00;5.00;;;;;21.04;47.75;101014.28;5078991;28;44939;-74
2022/08/30 02:26:38;;;;;;;;;9.00;7.00;;;;;21.04;47.82;101014.28;5078486;28;47410;-74
2022/08/30 02:29:04;;;;;;;;;7.33;6.00;;;;;21.02;47.93;101006.19;5078499;28;45404;-75
2022/08/30 02:31:31;;;;;;;;;6.67;6.00;;;;;21.05;47.76;101010.66;5080409;27;45793;-74
2022/08/30 02:33:56;;;;;;;;;4.00;4.00;;;;;21.02;47.92;101008.91;5079749;28;45515;-74
2022/08/30 02:36:22;;;;;;;;;4.33;4.00;;;;;20.96;49.80;101011.75;5079687;27;45369;-74
2022/08/30 02:38:50;;;;;;;;;6.00;5.50;;;;;20.94;49.45;101019.03;5079642;27;45385;-74
2022/08/30 02:41:17;;;;;;;;;7.00;7.00;;;;;20.83;52.41;101027.41;5079805;27;44768;-74
2022/08/30 02:43:43;;;;;;;;;5.00;5.00;;;;;20.72;52.63;101030.38;5078023;28;45378;-74
2022/08/30 02:46:09;;;;;;;;;5.00;5.00;;;;;20.72;53.08;101027.66;5079668;27;46501;-75
2022/08/30 02:48:34;;;;;;;;;7.00;6.00;;;;;20.64;58.16;101026.03;5079461;27;45389;-75
2022/08/30 02:51:12;;;;;;;;;5.00;5.00;;;;;20.44;57.89;101030.06;5079753;27;45486;-75
2022/08/30 02:53:39;;;;;;;;;5.33;5.33;;;;;20.24;61.08;101043.09;5079629;27;45420;-74
2022/08/30 02:56:05;;;;;;;;;6.00;6.00;;;;;20.08;59.97;101043.44;5079194;27;45954;-74
2022/08/30 02:58:31;;;;;;;;;9.00;7.00;;;;;20.09;62.37;101041.63;5078069;28;45972;-75
2022/08/30 03:00:56;;;;;;;;;7.33;7.33;;;;;20.07;62.67;101036.22;5078399;28;45686;-75
2022/08/30 03:03:23;;;;;;;;;9.00;6.00;;;;;20.03;61.85;101042.63;5077585;28;45465;-74
2022/08/30 03:05:49;;;;;;;;;10.33;9.33;;;;;19.96;63.08;101041.88;5079881;27;45766;-74
2022/08/30 03:08:15;;;;;;;;;6.33;6.33;;;;;19.93;64.98;101035.63;5073710;28;45500;-74
2022/08/30 03:10:40;;;;;;;;;9.33;9.33;;;;;19.92;67.42;101028.47;5057600;28;45509;-74
2022/08/30 03:13:08;;;;;;;;;4.33;4.33;;;;;19.85;67.74;101014.19;5059516;28;45520;-74
2022/08/30 03:15:36;;;;;;;;;7.33;7.00;;;;;19.67;70.16;101010.00;5059204;28;45397;-74
2022/08/30 03:18:02;;;;;;;;;7.33;7.33;;;;;19.56;69.44;101018.31;5057652;28;45365;-74
2022/08/30 03:20:27;;;;;;;;;11.67;10.00;;;;;19.57;70.39;101019.19;5058893;28;45456;-74
2022/08/30 03:23:00;;;;;;;;;10.33;8.00;;;;;19.60;75.24;101016.44;5066644;28;45455;-74
2022/08/30 03:25:26;;;;;;;;;10.00;7.00;;;;;19.44;78.17;101001.47;5078338;28;45456;-74
2022/08/30 03:27:51;;;;;;;;;8.33;8.33;;;;;19.32;78.16;101000.75;5078513;28;45689;-74
2022/08/30 03:30:18;;;;;;;;;8.33;8.33;;;;;19.27;77.88;100997.28;5077599;28;45307;-74
2022/08/30 03:32:44;;;;;;;;;6.67;6.67;;;;;19.23;81.97;100982.06;5079380;28;45526;-75
2022/08/30 03:35:11;;;;;;;;;10.67;9.00;;;;;19.18;81.05;100975.84;5090029;27;45482;-74
2022/08/30 03:37:36;;;;;;;;;10.00;7.67;;;;;19.12;80.22;100960.66;5099213;27;45540;-73
2022/08/30 03:40:07;;;;;;;;;10.67;9.67;;;;;19.13;82.45;100958.88;5099809;27;45346;-74
2022/08/30 03:42:33;;;;;;;;;7.00;7.00;;;;;19.09;78.83;100947.25;5099947;27;45443;-74
2022/08/30 03:45:01;;;;;;;;;8.00;6.67;;;;;19.09;73.66;100940.97;5097983;27;47714;-75
2022/08/30 03:47:27;;;;;;;;;8.00;7.33;;;;;19.10;74.65;100945.44;5099012;27;44862;-75
2022/08/30 03:49:53;;;;;;;;;11.67;8.00;;;;;19.05;76.32;100936.56;5099102;27;45427;-74
2022/08/30 03:52:18;;;;;;;;;8.67;8.67;;;;;19.01;74.61;100929.41;5099307;27;45375;-75
2022/08/30 03:54:44;;;;;;;;;8.00;7.00;;;;;19.01;73.86;100937.50;5098686;27;45487;-75
2022/08/30 03:57:09;;;;;;;;;6.00;5.00;;;;;19.05;73.09;100944.66;5080668;27;45902;-76
2022/08/30 03:59:35;;;;;;;;;7.00;7.00;;;;;19.03;71.39;100943.75;5099446;27;45362;-74
2022/08/30 04:02:01;;;;;;;;;4.33;4.33;;;;;19.05;71.27;100956.31;5081576;27;45346;-74
2022/08/30 04:04:33;;;;;;;;;8.33;6.67;;;;;19.07;71.63;100953.59;5098562;27;45727;-74
2022/08/30 04:06:59;;;;;;;;;9.00;9.00;;;;;19.12;71.77;100951.69;5098906;27;45697;-74
2022/08/30 04:09:24;;;;;;;;;11.00;9.00;;;;;19.16;71.59;100945.34;5098763;27;45438;-74
2022/08/30 04:11:50;;;;;;;;;6.00;6.00;;;;;19.24;72.90;100943.38;5080326;27;45388;-75
2022/08/30 04:14:16;;;;;;;;;9.67;8.00;;;;;19.25;71.38;100936.16;5098724;27;45435;-75
2022/08/30 04:16:41;;;;;;;;;6.67;6.00;;;;;19.19;71.94;100929.13;5097911;27;45374;-75
2022/08/30 04:19:07;;;;;;;;;7.00;7.00;;;;;19.20;70.31;100944.34;5080460;27;45446;-75
2022/08/30 04:21:32;;;;;;;;;6.00;6.00;;;;;19.17;69.56;100950.69;5099028;27;45391;-75
2022/08/30 04:23:58;;;;;;;;;8.33;7.00;;;;;19.21;69.96;100951.53;5097866;27;46008;-75
2022/08/30 04:26:23;;;;;;;;;8.67;7.00;;;;;19.28;71.14;100958.59;5080894;27;45350;-74
2022/08/30 04:28:49;;;;;;;;;6.33;6.33;;;;;19.30;68.89;100945.97;5099281;27;45469;-74
2022/08/30 04:31:16;;;;;;;;;6.00;6.00;;;;;19.33;68.08;100950.41;5098922;27;45428;-75
2022/08/30 04:33:43;;;;;;;;;8.33;7.33;;;;;19.31;68.97;100947.75;5098412;27;45393;-74
2022/08/30 04:36:10;;;;;;;;;7.67;7.67;;;;;19.31;69.31;100950.44;5098221;27;45506;-74
2022/08/30 04:38:38;;;;;;;;;7.33;7.00;;;;;19.32;68.96;100949.53;5099427;27;45713;-74
2022/08/30 04:41:10;;;;;;;;;7.00;7.00;;;;;19.28;68.67;100942.41;5098356;27;45420;-74
2022/08/30 04:43:36;;;;;;;;;8.67;7.00;;;;;19.23;70.50;100929.91;5098378;27;45443;-74
2022/08/30 04:46:05;;;;;;;;;7.00;6.00;;;;;19.19;69.60;100931.81;5079740;27;45899;-74
2022/08/30 04:48:35;;;;;;;;;9.00;8.33;;;;;19.12;68.66;100930.13;5096976;27;45539;-74
2022/08/30 04:51:09;;;;;;;;;6.00;6.00;;;;;19.18;69.25;100944.38;5079689;27;45890;-75
2022/08/30 04:53:35;;;;;;;;;8.00;7.67;;;;;19.21;68.89;100940.75;5098453;27;45720;-74
2022/08/30 04:56:05;;;;;;;;;10.00;9.00;;;;;19.19;68.23;100945.28;5097582;27;45383;-74
2022/08/30 04:58:32;;;;;;;;;7.33;7.00;;;;;19.21;68.41;100940.75;5098047;27;45234;-74
2022/08/30 05:00:57;;;;;;;;;7.00;7.00;;;;;19.16;68.89;100937.25;5097884;27;45389;-74
2022/08/30 05:03:23;;;;;;;;;9.00;8.00;;;;;19.12;69.54;100938.22;5097399;27;45433;-74
2022/08/30 05:05:49;;;;;;;;;6.33;6.00;;;;;19.15;70.75;100948.97;5098239;27;45376;-74
2022/08/30 05:08:17;;;;;;;;;10.67;9.00;;;;;19.09;70.15;100954.47;5097411;27;45392;-74
2022/08/30 05:10:48;;;;;;;;;9.00;8.00;;;;;19.11;69.77;100961.59;5098044;27;45400;-75
2022/08/30 05:13:14;;;;;;;;;9.00;8.00;;;;;19.10;68.71;100953.53;5094878;27;46949;-75
2022/08/30 05:15:40;;;;;;;;;9.00;7.67;;;;;19.15;68.31;100954.34;5098249;27;45418;-74
2022/08/30 05:18:08;;;;;;;;;5.33;5.33;;;;;19.16;68.48;100964.19;5098141;27;45404;-74
2022/08/30 05:20:35;;;;;;;;;9.00;8.33;;;;;19.15;68.51;100966.03;5098287;27;45534;-74
2022/08/30 05:23:03;;;;;;;;;8.33;8.33;;;;;19.17;68.20;100961.50;5096995;27;45471;-74
2022/08/30 05:25:32;;;;;;;;;7.33;7.33;;;;;19.26;68.21;100973.91;5098426;27;45403;-74
2022/08/30 05:27:58;;;;;;;;;8.33;7.33;;;;;19.31;68.21;100979.19;5097774;27;45417;-74
2022/08/30 05:30:26;;;;;;;;;8.67;6.67;;;;;19.31;70.10;100980.13;5079406;27;45498;-74
2022/08/30 05:32:52;;;;;;;;;6.00;6.00;;;;;19.37;69.30;100985.41;5092492;27;46758;-74
2022/08/30 05:35:19;;;;;;;;;5.33;3.67;;;;;19.41;68.70;100975.44;5076552;28;45693;-74
2022/08/30 05:37:45;;;;;;;;;8.00;6.00;;;;;19.44;69.01;100967.28;5077708;28;45444;-74
2022/08/30 05:40:12;;;;;;;;;8.33;8.33;;;;;19.43;69.40;100967.31;5076775;28;45405;-74
2022/08/30 05:42:40;;;;;;;;;8.00;8.00;;;;;19.48;68.53;100973.50;5078245;28;46463;-74
2022/08/30 05:45:06;;;;;;;;;8.67;8.00;;;;;19.53;68.87;100985.09;5059426;28;45804;-75
2022/08/30 05:47:31;;;;;;;;;10.00;9.00;;;;;19.57;68.61;100984.13;5059178;28;45483;-74
2022/08/30 05:49:57;;;;;;;;;8.00;8.00;;;;;19.64;69.53;100996.56;5058842;28;45390;-74
2022/08/30 05:52:22;;;;;;;;;9.00;9.00;;;;;19.66;70.66;100991.16;5076871;28;45358;-74
2022/08/30 05:54:54;;;;;;;;;11.67;10.67;;;;;19.66;73.00;100983.94;5042076;28;45420;-74
2022/08/30 05:57:20;;;;;;;;;11.00;11.00;;;;;19.71;73.92;100984.78;5075557;28;45421;-75
2022/08/30 05:59:45;;;;;;;;;9.00;8.67;;;;;19.77;74.92;100990.06;5077665;28;45531;-75
2022/08/30 06:02:11;;;;;;;;;9.00;8.00;;;;;19.87;75.30;100984.47;5059287;28;46441;-74
2022/08/30 06:04:36;;;;;;;;;13.67;10.67;;;;;19.95;75.96;100988.78;5058665;28;45551;-74
2022/08/30 06:07:02;;;;;;;;;12.67;11.00;;;;;20.04;76.19;100990.41;5077030;28;45453;-74
2022/08/30 06:09:28;;;;;;;;;12.00;12.00;;;;;20.13;75.67;100987.50;5077069;28;45636;-75
2022/08/30 06:11:54;;;;;;;;;10.00;10.00;;;;;20.19;72.78;100983.78;5059204;28;45414;-74
2022/08/30 06:14:19;;;;;;;;;9.00;9.00;;;;;20.25;72.81;100980.94;5077431;28;45421;-74
2022/08/30 06:16:46;;;;;;;;;11.33;10.00;;;;;20.29;70.86;100987.19;5077028;28;45373;-75
2022/08/30 06:19:14;;;;;;;;;8.33;8.33;;;;;20.29;69.01;100984.47;5078092;28;45424;-75
2022/08/30 06:21:41;;;;;;;;;9.00;8.33;;;;;20.32;68.11;100990.72;5076646;28;45409;-75
2022/08/30 06:24:08;;;;;;;;;9.67;8.00;;;;;20.27;66.41;100994.44;5053806;28;45599;-75
2022/08/30 06:26:40;;;;;;;;;8.33;8.00;;;;;20.18;65.18;100985.59;5055634;28;45429;-75
2022/08/30 06:29:07;;;;;;;;;6.33;6.33;;;;;20.12;65.39;100991.13;5055914;28;45490;-75
2022/08/30 06:31:33;;;;;;;;;9.00;9.00;;;;;20.03;64.53;100983.22;5054224;28;45402;-75
2022/08/30 06:33:59;;;;;;;;;8.00;8.00;;;;;20.06;64.17;100993.97;5054832;28;45413;-75
2022/08/30 06:36:25;;;;;;;;;6.67;6.67;;;;;20.11;63.44;100999.25;5055002;28;45425;-75
2022/08/30 06:38:53;;;;;;;;;15.00;12.00;;;;;20.04;63.19;100995.81;5072525;28;45465;-75
2022/08/30 06:41:23;;;;;;;;;8.67;8.33;;;;;19.99;63.38;100989.59;5058134;28;46668;-75
2022/08/30 06:43:49;;;;;;;;;10.00;8.00;;;;;20.03;63.11;100991.31;5056881;28;45412;-75
2022/08/30 06:46:22;;;;;;;;;6.00;6.00;;;;;20.05;62.19;101005.69;5058448;28;45371;-75
2022/08/30 06:48:48;;;;;;;;;7.33;7.33;;;;;20.04;62.75;100993.13;5058900;28;45780;-75
2022/08/30 06:51:14;;;;;;;;;11.00;9.67;;;;;20.09;62.77;100991.19;5058840;28;45398;-75
2022/08/30 06:53:39;;;;;;;;;9.00;8.00;;;;;20.14;62.14;100994.69;5073431;28;45420;-75
2022/08/30 06:56:08;;;;;;;;;10.33;9.00;;;;;20.15;62.29;101001.84;5083509;28;46015;-75
2022/08/30 06:58:36;;;;;;;;;8.67;7.00;;;;;20.16;61.61;101002.78;5058467;28;45403;-75
2022/08/30 07:01:05;;;;;;;;;14.00;11.00;;;;;20.15;61.60;100996.47;5056835;28;46140;-75
2022/08/30 07:03:33;;;;;;;;;10.00;8.00;;;;;20.19;61.41;101000.88;5058335;28;45447;-74
2022/08/30 07:05:59;;;;;;;;;7.67;7.67;;;;;20.30;61.42;100997.94;5059298;28;45567;-74
2022/08/30 07:08:24;;;;;;;;;9.33;7.33;;;;;20.35;60.65;100997.84;5057941;28;45431;-75
2022/08/30 07:10:52;;;;;;;;;10.67;10.33;;;;;20.42;61.61;101002.19;5058243;28;46714;-75
2022/08/30 07:13:19;;;;;;;;;11.00;9.33;;;;;20.50;62.73;101005.63;5058558;28;45535;-74
2022/08/30 07:15:45;;;;;;;;;10.00;10.00;;;;;20.63;62.63;101003.53;5059837;28;45357;-75
2022/08/30 07:20:55;;;;;;;;;9.67;7.33;;;;;21.08;62.33;101002.47;5058273;28;45546;-75
2022/08/30 07:23:21;;;;;;;;;11.33;9.00;;;;;21.32;61.79;101009.94;5075611;27;45384;-76
2022/08/30 07:25:47;;;;;;;;;9.00;7.33;;;;;21.52;60.92;101005.84;5078910;28;45422;-75
2022/08/30 07:28:12;;;;;;;;;9.00;8.33;;;;;21.71;59.62;101012.53;5061088;28;45482;-76
2022/08/30 07:30:40;;;;;;;;;13.33;13.00;;;;;21.70;59.32;101009.88;5080774;27;45451;-76
2022/08/30 07:33:07;;;;;;;;;10.00;10.00;;;;;21.46;59.10;100997.91;5069658;27;45496;-76
2022/08/30 07:35:33;;;;;;;;;9.67;9.33;;;;;21.51;60.59;101015.78;5095012;27;45501;-76
2022/08/30 07:38:02;;;;;;;;;12.00;10.00;;;;;21.56;59.68;101007.53;5062355;27;45529;-75
2022/08/30 07:40:27;;;;;;;;;7.33;7.33;;;;;21.59;59.49;101012.84;5077661;28;45450;-76
2022/08/30 07:43:00;;;;;;;;;9.33;7.33;;;;;21.51;59.86;101009.47;5091793;27;45489;-76
2022/08/30 07:45:26;;;;;;;;;11.67;9.67;;;;;21.58;59.83;101002.97;5091027;27;45550;-76
2022/08/30 07:47:52;;;;;;;;;11.33;9.67;;;;;21.63;59.84;101001.00;5069071;28;45578;-75
2022/08/30 07:50:21;;;;;;;;;9.00;9.00;;;;;21.83;59.75;101005.00;5084094;27;45302;-77
2022/08/30 07:52:46;;;;;;;;;10.00;9.67;;;;;22.02;58.95;100998.13;5073268;27;45563;-75
2022/08/30 07:55:11;;;;;;;;;13.00;11.67;;;;;22.14;57.68;101008.59;5090454;27;45459;-75
2022/08/30 07:57:37;;;;;;;;;8.00;8.00;;;;;22.16;57.74;101014.84;5085580;27;45461;-76
2022/08/30 08:00:04;;;;;;;;;12.00;11.67;;;;;22.12;57.56;101005.03;5077585;27;47560;-76
2022/08/30 08:02:40;;;;;;;;;11.67;10.00;;;;;22.17;57.41;101011.19;5086036;27;45678;-75
2022/08/30 08:05:08;;;;;;;;;9.00;8.00;;;;;22.26;57.12;101020.00;5088507;27;45437;-76
2022/08/30 08:07:34;;;;;;;;;14.00;11.00;;;;;22.30;56.82;101013.56;5077589;27;45317;-75
2022/08/30 08:10:00;;;;;;;;;11.00;10.00;;;;;22.35;55.97;101008.91;5080921;27;48314;-75
2022/08/30 08:12:26;;;;;;;;;11.33;11.33;;;;;22.30;57.05;101014.47;5086294;27;45424;-75
2022/08/30 08:14:53;;;;;;;;;14.33;11.33;;;;;22.41;56.66;101003.31;5084963;27;45826;-74
2022/08/30 08:17:19;;;;;;;;;11.67;10.00;;;;;22.52;56.62;101014.72;5098981;27;45731;-75
2022/08/30 08:19:44;;;;;;;;;12.67;11.33;;;;;22.48;55.44;101015.75;5098511;27;45786;-75
2022/08/30 08:22:10;;;;;;;;;12.33;11.00;;;;;22.49;56.49;101022.91;5090846;27;45322;-77
2022/08/30 08:24:36;;;;;;;;;12.00;12.00;;;;;22.64;56.03;101026.09;5091941;27;45392;-76
2022/08/30 08:27:03;;;;;;;;;12.00;10.00;;;;;22.71;56.40;101022.25;5080061;27;45592;-76
2022/08/30 08:29:29;;;;;;;;;12.67;10.00;;;;;22.73;54.41;101034.81;5082706;27;46837;-76
2022/08/30 08:31:56;;;;;;;;;11.00;9.33;;;;;22.70;55.45;101031.31;5087036;27;46248;-76
2022/08/30 08:34:23;;;;;;;;;10.00;10.00;;;;;22.66;55.76;101035.06;5068540;28;45393;-76
2022/08/30 08:36:49;;;;;;;;;10.00;10.00;;;;;22.47;55.92;101030.22;5060488;27;45386;-75
2022/08/30 08:39:21;;;;;;;;;10.67;10.00;;;;;22.56;56.07;101046.22;5077343;28;46983;-75
2022/08/30 08:41:59;;;;;;;;;12.00;11.00;;;;;22.74;55.50;101043.84;5063044;28;44939;-76
2022/08/30 08:44:43;;;;;;;;;13.33;12.00;;;;;23.05;55.28;101034.75;5092462;27;45754;-76
2022/08/30 08:47:17;;;;;;;;;12.00;11.33;;;;;23.41;54.45;101045.28;5078299;28;45440;-75
2022/08/30 08:49:46;;;;;;;;;9.67;9.00;;;;;23.53;53.39;101045.78;5079204;27;45589;-75
2022/08/30 08:55:14;;;;;;;;;12.00;8.67;;;;;23.64;53.76;101058.09;5098678;27;45413;-75
2022/08/30 08:57:40;;;;;;;;;8.00;8.00;;;;;23.73;53.16;101052.31;5092941;27;45482;-73
2022/08/30 09:00:09;;;;;;;;;11.00;10.33;;;;;23.93;53.30;101054.34;5079956;27;46141;-76
2022/08/30 09:02:45;;;;;;;;;13.00;13.00;;;;;24.16;52.57;101042.63;5097523;27;45810;-74
2022/08/30 09:05:22;;;;;;;;;11.67;10.67;;;;;24.29;51.87;101056.63;5084611;27;45536;-76
2022/08/30 09:07:56;;;;;;;;;13.00;12.67;;;;;24.23;50.88;101063.19;5074279;28;45427;-75
2022/08/30 09:10:23;;;;;;;;;13.00;10.67;;;;;24.07;51.06;101057.44;5075484;28;47794;-76
2022/08/30 09:12:49;;;;;;;;;11.33;11.33;;;;;23.98;51.52;101057.78;5069117;28;45470;-76
2022/08/30 09:15:23;;;;;;;;;10.33;10.33;;;;;24.06;51.96;101058.38;5075862;27;45383;-74
2022/08/30 09:17:58;;;;;;;;;12.00;10.33;;;;;24.22;51.13;101064.16;5090142;27;45444;-75
2022/08/30 09:20:40;;;;;;;;;9.33;9.33;;;;;24.35;51.44;101057.28;5081410;27;45510;-76
2022/08/30 09:23:21;;;;;;;;;14.33;13.00;;;;;24.46;51.05;101062.31;5072549;28;45320;-76
2022/08/30 09:26:04;;;;;;;;;7.00;6.00;;;;;24.57;50.98;101050.19;5070506;28;45362;-74
2022/08/30 09:28:50;;;;;;;;;8.67;8.67;;;;;24.77;50.10;101058.41;5061549;28;45406;-75
2022/08/30 09:31:30;;;;;;;;;16.00;14.33;;;;;24.97;50.44;101054.03;5061152;27;46298;-75
2022/08/30 09:34:02;;;;;;;;;18.33;14.33;;;;;25.10;49.23;101060.72;5065586;28;45495;-76
2022/08/30 09:36:38;;;;;;;;;8.33;8.33;;;;;24.95;48.99;101067.69;5066218;28;45528;-76
2022/08/30 09:39:14;;;;;;;;;9.00;9.00;;;;;24.83;49.66;101058.19;5077759;27;45671;-76
2022/08/30 09:41:49;;;;;;;;;11.33;11.00;;;;;24.89;49.48;101062.50;5065999;28;46672;-76
2022/08/30 09:44:22;;;;;;;;;10.33;10.33;;;;;25.02;49.68;101058.31;5074174;28;45194;-77
2022/08/30 09:46:56;;;;;;;;;8.67;8.00;;;;;25.18;49.42;101058.56;5075023;28;45512;-74
2022/08/30 09:49:42;;;;;;;;;12.00;12.00;;;;;25.31;49.34;101054.41;5063812;28;45283;-76
2022/08/30 09:52:20;;;;;;;;;9.00;9.00;;;;;25.27;49.23;101060.94;5055953;28;47419;-75
2022/08/30 09:55:18;;;;;;;;;13.00;12.00;;;;;25.39;49.28;101055.91;5084412;27;45413;-76
2022/08/30 09:58:02;;;;;;;;;12.67;11.33;;;;;25.29;48.44;101067.19;5011813;28;45534;-77
2022/08/30 10:00:34;;;;;;;;;8.67;8.00;;;;;25.26;48.55;101053.72;5004334;28;45463;-77
2022/08/30 10:03:02;;;;;;;;;13.00;13.00;;;;;25.48;49.08;101071.88;5002258;28;46253;-76
2022/08/30 10:05:35;;;;;;;;;12.67;12.67;;;;;25.60;47.59;101074.06;4998417;28;45505;-75
2022/08/30 10:08:25;;;;;;;;;13.00;12.00;;;;;25.66;48.28;101075.63;4997850;28;45548;-76
2022/08/30 10:11:23;;;;;;;;;10.00;10.00;;;;;25.86;48.09;101072.91;5014143;28;45421;-75
2022/08/30 10:14:20;;;;;;;;;9.00;9.00;;;;;26.11;47.38;101069.09;5007859;28;45431;-76
2022/08/30 10:17:00;;;;;;;;;12.00;10.67;;;;;25.88;46.94;101053.78;5007398;28;45898;-76
2022/08/30 10:19:53;;;;;;;;;10.00;9.00;;;;;26.00;47.28;101076.91;4997853;28;45492;-75
2022/08/30 10:22:27;;;;;;;;;3.33;3.33;;;;;26.00;47.42;101074.19;4996113;28;45448;-76
2022/08/30 10:25:12;;;;;;;;;11.00;10.67;;;;;26.01;47.00;101071.34;4981476;28;47299;-76
2022/08/30 10:27:55;;;;;;;;;11.50;11.50;;;;;26.01;46.01;101076.81;5000149;28;45464;-76
2022/08/30 10:30:21;;;;;;;;;9.67;8.00;;;;;25.87;46.57;101068.34;4998285;28;45873;-77
2022/08/30 10:33:11;;;;;;;;;16.00;11.67;;;;;25.91;46.51;101070.00;4997650;28;45533;-76
2022/08/30 10:35:46;;;;;;;;;10.67;10.67;;;;;25.99;46.52;101062.38;5060415;28;45301;-76
2022/08/30 10:38:20;;;;;;;;;10.67;10.00;;;;;26.10;46.95;101065.50;5058930;28;45315;-76
2022/08/30 10:43:52;;;;;;;;;10.00;10.00;;;;;26.30;45.98;101066.44;5061543;28;45456;-77
2022/08/30 10:46:39;;;;;;;;;11.33;10.33;;;;;26.11;45.80;101072.72;5060413;28;46072;-77
2022/08/30 10:49:14;;;;;;;;;10.00;9.00;;;;;26.07;46.88;101073.81;5060757;28;45461;-76
2022/08/30 10:51:54;;;;;;;;;10.67;10.67;;;;;26.28;46.50;101068.34;5060963;28;45800;-75
2022/08/30 10:54:47;;;;;;;;;10.00;10.00;;;;;26.45;46.31;101070.28;5059924;28;45431;-77
2022/08/30 10:57:32;;;;;;;;;11.00;11.00;;;;;26.51;45.36;101070.88;4976797;28;48490;-80
2022/08/30 11:00:09;;;;;;;;;12.67;11.00;;;;;26.49;45.75;101074.63;4977864;28;46132;-76
2022/08/30 11:03:03;;;;;;;;;12.33;10.00;;;;;26.41;46.60;101075.00;4984051;28;45432;-78
2022/08/30 11:05:37;;;;;;;;;9.67;9.67;;;;;26.45;46.75;101071.16;4994180;28;45630;-77
2022/08/30 11:08:18;;;;;;;;;10.67;10.67;;;;;26.59;45.92;101072.41;4998865;28;48457;-77
2022/08/30 11:11:00;;;;;;;;;13.67;13.67;;;;;26.68;45.81;101080.13;4976998;28;45565;-77
2022/08/30 11:13:30;;;;;;;;;8.67;8.67;;;;;26.62;45.93;101077.69;4988570;28;44867;-76
2022/08/30 11:16:08;;;;;;;;;9.33;9.00;;;;;26.61;45.28;101076.81;4986710;28;45233;-77
2022/08/30 11:18:50;;;;;;;;;14.00;12.33;;;;;26.70;45.74;101064.56;5002522;28;46762;-75
2022/08/30 11:21:33;;;;;;;;;10.67;10.33;;;;;26.76;45.39;101063.38;4996983;28;45514;-76
2022/08/30 11:24:03;;;;;;;;;10.00;10.00;;;;;26.80;44.74;101073.19;4979651;28;45590;-75
2022/08/30 11:26:43;;;;;;;;;13.00;13.00;;;;;26.63;44.63;101072.16;4997126;28;45473;-76
2022/08/30 11:29:42;;;;;;;;;10.33;10.33;;;;;26.63;45.66;101074.00;4964929;28;47129;-77
2022/08/30 11:32:16;;;;;;;;;13.33;11.33;;;;;26.77;45.26;101071.50;4988139;28;45422;-77
2022/08/30 11:34:44;;;;;;;;;12.00;11.00;;;;;26.88;44.47;101074.59;5040514;28;44867;-76
2022/08/30 11:37:28;;;;;;;;;10.00;10.00;;;;;26.74;44.23;101067.09;5067594;28;45596;-77
2022/08/30 11:40:00;;;;;;;;;8.00;8.00;;;;;26.68;44.24;101061.03;5057680;28;45434;-78